sensor_id;sensor_type;location;lat;lon;timestamp;P1;durP1;ratioP1;P2;durP2;ratioP2
28774;SDS011;15926;51.348;6.596;2023-03-21T00:02:17;9.55;;;4.95;;
28774;SDS011;15926;51.348;6.596;2023-03-21T00:04:43;12.77;;;4.18;;
28774;SDS011;15926;51.348;6.596;2023-03-21T00:07:09;7.70;;;3.70;;
28774;SDS011;15926;51.348;6.596;2023-03-21T00:09:35;12.65;;;3.90;;
28774;SDS011;15926;51.348;6.596;2023-03-21T00:12:01;9.65;;;4.30;;
28774;SDS011;15926;51.348;6.596;2023-03-21T00:14:31;12.00;;;4.10;;
28774;SDS011;15926;51.348;6.596;2023-03-21T00:16:57;8.13;;;3.70;;
28774;SDS011;15926;51.348;6.596;2023-03-21T00:19:23;9.82;;;3.75;;
28774;SDS011;15926;51.348;6.596;2023-03-21T00:21:50;7.32;;;4.03;;
28774;SDS011;15926;51.348;6.596;2023-03-21T00:24:17;9.73;;;3.38;;
28774;SDS011;15926;51.348;6.596;2023-03-21T00:26:43;13.32;;;4.13;;
28774;SDS011;15926;51.348;6.596;2023-03-21T00:29:09;7.45;;;4.07;;
28774;SDS011;15926;51.348;6.596;2023-03-21T00:31:35;6.10;;;3.95;;
28774;SDS011;15926;51.348;6.596;2023-03-21T00:34:01;8.48;;;3.75;;
28774;SDS011;15926;51.348;6.596;2023-03-21T00:36:27;10.48;;;3.85;;
28774;SDS011;15926;51.348;6.596;2023-03-21T00:38:53;9.45;;;4.10;;
28774;SDS011;15926;51.348;6.596;2023-03-21T00:41:19;9.40;;;3.88;;
28774;SDS011;15926;51.348;6.596;2023-03-21T00:43:45;13.38;;;4.35;;
28774;SDS011;15926;51.348;6.596;2023-03-21T00:46:11;7.93;;;4.03;;
28774;SDS011;15926;51.348;6.596;2023-03-21T00:48:37;10.45;;;4.43;;
28774;SDS011;15926;51.348;6.596;2023-03-21T00:51:09;9.75;;;3.28;;
28774;SDS011;15926;51.348;6.596;2023-03-21T00:53:36;13.95;;;4.38;;
28774;SDS011;15926;51.348;6.596;2023-03-21T00:56:02;6.72;;;4.47;;
28774;SDS011;15926;51.348;6.596;2023-03-21T00:58:28;10.88;;;4.43;;
28774;SDS011;15926;51.348;6.596;2023-03-21T01:00:54;7.82;;;4.10;;
28774;SDS011;15926;51.348;6.596;2023-03-21T01:03:21;14.13;;;4.57;;
28774;SDS011;15926;51.348;6.596;2023-03-21T01:05:50;11.40;;;4.32;;
28774;SDS011;15926;51.348;6.596;2023-03-21T01:08:37;12.32;;;3.83;;
28774;SDS011;15926;51.348;6.596;2023-03-21T01:11:05;7.95;;;4.30;;
28774;SDS011;15926;51.348;6.596;2023-03-21T01:13:31;14.47;;;4.53;;
28774;SDS011;15926;51.348;6.596;2023-03-21T01:15:58;10.63;;;5.05;;
28774;SDS011;15926;51.348;6.596;2023-03-21T01:18:26;10.00;;;4.60;;
28774;SDS011;15926;51.348;6.596;2023-03-21T01:20:53;9.98;;;4.55;;
28774;SDS011;15926;51.348;6.596;2023-03-21T01:23:20;11.07;;;4.35;;
28774;SDS011;15926;51.348;6.596;2023-03-21T01:25:46;18.08;;;4.35;;
28774;SDS011;15926;51.348;6.596;2023-03-21T01:28:12;8.63;;;4.53;;
28774;SDS011;15926;51.348;6.596;2023-03-21T01:30:38;7.95;;;4.43;;
28774;SDS011;15926;51.348;6.596;2023-03-21T01:33:09;9.05;;;4.15;;
28774;SDS011;15926;51.348;6.596;2023-03-21T01:35:35;11.65;;;4.82;;
28774;SDS011;15926;51.348;6.596;2023-03-21T01:38:01;11.68;;;4.80;;
28774;SDS011;15926;51.348;6.596;2023-03-21T01:40:28;14.43;;;5.18;;
28774;SDS011;15926;51.348;6.596;2023-03-21T01:42:55;10.35;;;5.03;;
28774;SDS011;15926;51.348;6.596;2023-03-21T01:48:06;12.27;;;5.30;;
28774;SDS011;15926;51.348;6.596;2023-03-21T01:50:32;9.48;;;5.03;;
28774;SDS011;15926;51.348;6.596;2023-03-21T01:52:58;13.18;;;5.65;;
28774;SDS011;15926;51.348;6.596;2023-03-21T01:55:24;10.45;;;6.15;;
28774;SDS011;15926;51.348;6.596;2023-03-21T01:57:51;11.63;;;5.47;;
28774;SDS011;15926;51.348;6.596;2023-03-21T02:00:19;12.32;;;5.85;;
28774;SDS011;15926;51.348;6.596;2023-03-21T02:02:45;13.90;;;6.05;;
28774;SDS011;15926;51.348;6.596;2023-03-21T02:05:20;14.73;;;6.38;;
28774;SDS011;15926;51.348;6.596;2023-03-21T02:07:47;18.88;;;6.03;;
28774;SDS011;15926;51.348;6.596;2023-03-21T02:10:14;12.63;;;5.55;;
28774;SDS011;15926;51.348;6.596;2023-03-21T02:12:40;14.93;;;5.60;;
28774;SDS011;15926;51.348;6.596;2023-03-21T02:15:07;12.55;;;5.60;;
28774;SDS011;15926;51.348;6.596;2023-03-21T02:17:42;12.68;;;5.63;;
28774;SDS011;15926;51.348;6.596;2023-03-21T02:20:19;14.90;;;5.55;;
28774;SDS011;15926;51.348;6.596;2023-03-21T02:25:59;12.57;;;6.13;;
28774;SDS011;15926;51.348;6.596;2023-03-21T02:28:34;15.73;;;6.63;;
28774;SDS011;15926;51.348;6.596;2023-03-21T02:46:27;12.73;;;5.95;;
28774;SDS011;15926;51.348;6.596;2023-03-21T02:49:13;15.15;;;6.40;;
28774;SDS011;15926;51.348;6.596;2023-03-21T02:51:42;13.48;;;6.20;;
28774;SDS011;15926;51.348;6.596;2023-03-21T02:54:09;12.77;;;5.97;;
28774;SDS011;15926;51.348;6.596;2023-03-21T02:59:04;14.88;;;6.05;;
28774;SDS011;15926;51.348;6.596;2023-03-21T03:01:30;14.43;;;5.65;;
28774;SDS011;15926;51.348;6.596;2023-03-21T03:03:56;16.20;;;6.15;;
28774;SDS011;15926;51.348;6.596;2023-03-21T03:07:10;14.82;;;6.32;;
28774;SDS011;15926;51.348;6.596;2023-03-21T03:09:22;11.18;;;5.38;;
28774;SDS011;15926;51.348;6.596;2023-03-21T03:11:56;14.77;;;6.20;;
28774;SDS011;15926;51.348;6.596;2023-03-21T03:14:39;15.50;;;6.05;;
28774;SDS011;15926;51.348;6.596;2023-03-21T03:19:57;11.23;;;5.82;;
28774;SDS011;15926;51.348;6.596;2023-03-21T03:22:27;16.20;;;6.38;;
28774;SDS011;15926;51.348;6.596;2023-03-21T03:24:59;13.85;;;6.10;;
28774;SDS011;15926;51.348;6.596;2023-03-21T03:27:34;15.07;;;6.75;;
28774;SDS011;15926;51.348;6.596;2023-03-21T03:30:02;14.48;;;7.03;;
28774;SDS011;15926;51.348;6.596;2023-03-21T03:32:41;11.75;;;6.28;;
28774;SDS011;15926;51.348;6.596;2023-03-21T03:35:10;11.18;;;6.78;;
28774;SDS011;15926;51.348;6.596;2023-03-21T03:37:36;14.13;;;6.75;;
28774;SDS011;15926;51.348;6.596;2023-03-21T03:42:45;11.45;;;5.78;;
28774;SDS011;15926;51.348;6.596;2023-03-21T03:45:12;9.18;;;5.63;;
28774;SDS011;15926;51.348;6.596;2023-03-21T03:52:44;14.25;;;6.30;;
28774;SDS011;15926;51.348;6.596;2023-03-21T03:55:13;10.50;;;6.20;;
28774;SDS011;15926;51.348;6.596;2023-03-21T03:57:41;13.57;;;5.80;;
28774;SDS011;15926;51.348;6.596;2023-03-21T04:00:09;11.23;;;5.65;;
28774;SDS011;15926;51.348;6.596;2023-03-21T04:02:36;15.32;;;6.00;;
28774;SDS011;15926;51.348;6.596;2023-03-21T04:05:02;15.50;;;6.00;;
28774;SDS011;15926;51.348;6.596;2023-03-21T04:07:29;11.95;;;5.63;;
28774;SDS011;15926;51.348;6.596;2023-03-21T04:09:55;15.02;;;5.78;;
28774;SDS011;15926;51.348;6.596;2023-03-21T04:12:22;17.67;;;6.57;;
28774;SDS011;15926;51.348;6.596;2023-03-21T04:14:47;12.90;;;5.88;;
28774;SDS011;15926;51.348;6.596;2023-03-21T04:17:14;16.58;;;6.82;;
28774;SDS011;15926;51.348;6.596;2023-03-21T04:19:40;8.20;;;5.70;;
28774;SDS011;15926;51.348;6.596;2023-03-21T04:22:06;13.30;;;6.20;;
28774;SDS011;15926;51.348;6.596;2023-03-21T04:24:32;16.55;;;6.80;;
28774;SDS011;15926;51.348;6.596;2023-03-21T04:27:01;10.13;;;6.43;;
28774;SDS011;15926;51.348;6.596;2023-03-21T04:29:29;14.35;;;6.50;;
28774;SDS011;15926;51.348;6.596;2023-03-21T04:31:55;12.73;;;7.28;;
28774;SDS011;15926;51.348;6.596;2023-03-21T04:34:21;19.58;;;7.05;;
28774;SDS011;15926;51.348;6.596;2023-03-21T04:36:48;13.25;;;6.88;;
28774;SDS011;15926;51.348;6.596;2023-03-21T04:39:15;14.27;;;6.45;;
28774;SDS011;15926;51.348;6.596;2023-03-21T04:41:42;16.17;;;6.53;;
28774;SDS011;15926;51.348;6.596;2023-03-21T04:44:08;12.50;;;7.10;;
28774;SDS011;15926;51.348;6.596;2023-03-21T04:46:35;15.57;;;7.80;;
28774;SDS011;15926;51.348;6.596;2023-03-21T04:49:01;20.63;;;7.75;;
28774;SDS011;15926;51.348;6.596;2023-03-21T04:51:34;13.10;;;6.45;;
28774;SDS011;15926;51.348;6.596;2023-03-21T04:54:00;18.52;;;7.82;;
28774;SDS011;15926;51.348;6.596;2023-03-21T04:56:26;20.75;;;7.40;;
28774;SDS011;15926;51.348;6.596;2023-03-21T04:58:58;12.98;;;7.40;;
28774;SDS011;15926;51.348;6.596;2023-03-21T05:01:24;15.63;;;7.53;;
28774;SDS011;15926;51.348;6.596;2023-03-21T05:03:55;17.48;;;8.18;;
28774;SDS011;15926;51.348;6.596;2023-03-21T05:06:21;17.13;;;7.10;;
28774;SDS011;15926;51.348;6.596;2023-03-21T05:08:47;13.85;;;7.78;;
28774;SDS011;15926;51.348;6.596;2023-03-21T05:11:13;18.83;;;7.18;;
28774;SDS011;15926;51.348;6.596;2023-03-21T05:13:39;14.88;;;7.90;;
28774;SDS011;15926;51.348;6.596;2023-03-21T05:16:05;12.10;;;6.38;;
28774;SDS011;15926;51.348;6.596;2023-03-21T05:18:31;14.07;;;7.15;;
28774;SDS011;15926;51.348;6.596;2023-03-21T05:20:58;13.02;;;7.07;;
28774;SDS011;15926;51.348;6.596;2023-03-21T05:23:24;16.52;;;7.40;;
28774;SDS011;15926;51.348;6.596;2023-03-21T05:25:55;13.43;;;7.45;;
28774;SDS011;15926;51.348;6.596;2023-03-21T05:28:21;14.38;;;7.32;;
28774;SDS011;15926;51.348;6.596;2023-03-21T05:30:47;15.95;;;7.47;;
28774;SDS011;15926;51.348;6.596;2023-03-21T05:33:13;14.40;;;7.32;;
28774;SDS011;15926;51.348;6.596;2023-03-21T05:35:39;18.63;;;7.18;;
28774;SDS011;15926;51.348;6.596;2023-03-21T05:38:05;15.35;;;7.15;;
28774;SDS011;15926;51.348;6.596;2023-03-21T05:40:31;15.30;;;7.03;;
28774;SDS011;15926;51.348;6.596;2023-03-21T05:42:57;16.40;;;6.97;;
28774;SDS011;15926;51.348;6.596;2023-03-21T05:45:23;16.77;;;6.75;;
28774;SDS011;15926;51.348;6.596;2023-03-21T05:47:50;13.50;;;6.95;;
28774;SDS011;15926;51.348;6.596;2023-03-21T05:50:16;18.52;;;7.60;;
28774;SDS011;15926;51.348;6.596;2023-03-21T05:52:42;19.13;;;7.32;;
28774;SDS011;15926;51.348;6.596;2023-03-21T05:55:08;14.70;;;7.80;;
28774;SDS011;15926;51.348;6.596;2023-03-21T05:57:34;13.75;;;6.65;;
28774;SDS011;15926;51.348;6.596;2023-03-21T06:00:03;17.00;;;7.43;;
28774;SDS011;15926;51.348;6.596;2023-03-21T06:02:29;15.80;;;7.45;;
28774;SDS011;15926;51.348;6.596;2023-03-21T06:04:55;13.80;;;7.15;;
28774;SDS011;15926;51.348;6.596;2023-03-21T06:07:21;13.43;;;7.25;;
28774;SDS011;15926;51.348;6.596;2023-03-21T06:09:47;14.95;;;7.20;;
28774;SDS011;15926;51.348;6.596;2023-03-21T06:12:13;15.75;;;6.85;;
28774;SDS011;15926;51.348;6.596;2023-03-21T06:14:39;14.18;;;6.82;;
28774;SDS011;15926;51.348;6.596;2023-03-21T06:17:05;14.68;;;6.65;;
28774;SDS011;15926;51.348;6.596;2023-03-21T06:19:31;13.90;;;6.35;;
28774;SDS011;15926;51.348;6.596;2023-03-21T06:21:57;16.13;;;6.75;;
28774;SDS011;15926;51.348;6.596;2023-03-21T06:24:23;14.88;;;7.18;;
28774;SDS011;15926;51.348;6.596;2023-03-21T06:26:50;17.92;;;7.07;;
28774;SDS011;15926;51.348;6.596;2023-03-21T06:29:16;15.80;;;8.00;;
28774;SDS011;15926;51.348;6.596;2023-03-21T06:31:42;18.63;;;7.63;;
28774;SDS011;15926;51.348;6.596;2023-03-21T06:34:08;12.98;;;6.40;;
28774;SDS011;15926;51.348;6.596;2023-03-21T06:36:36;14.38;;;6.38;;
28774;SDS011;15926;51.348;6.596;2023-03-21T06:39:02;13.13;;;6.63;;
28774;SDS011;15926;51.348;6.596;2023-03-21T06:41:28;11.75;;;5.85;;
28774;SDS011;15926;51.348;6.596;2023-03-21T06:43:54;14.13;;;6.25;;
28774;SDS011;15926;51.348;6.596;2023-03-21T06:46:20;12.88;;;6.63;;
28774;SDS011;15926;51.348;6.596;2023-03-21T06:48:46;15.40;;;7.00;;
28774;SDS011;15926;51.348;6.596;2023-03-21T06:51:13;11.80;;;6.50;;
28774;SDS011;15926;51.348;6.596;2023-03-21T06:53:39;13.95;;;6.90;;
28774;SDS011;15926;51.348;6.596;2023-03-21T06:56:06;11.57;;;6.20;;
28774;SDS011;15926;51.348;6.596;2023-03-21T06:58:32;13.98;;;6.60;;
28774;SDS011;15926;51.348;6.596;2023-03-21T07:00:58;18.48;;;7.53;;
28774;SDS011;15926;51.348;6.596;2023-03-21T07:03:25;16.20;;;6.25;;
28774;SDS011;15926;51.348;6.596;2023-03-21T07:05:51;16.92;;;6.90;;
28774;SDS011;15926;51.348;6.596;2023-03-21T07:08:17;12.55;;;6.50;;
28774;SDS011;15926;51.348;6.596;2023-03-21T07:10:44;17.27;;;6.25;;
28774;SDS011;15926;51.348;6.596;2023-03-21T07:13:11;13.55;;;5.88;;
28774;SDS011;15926;51.348;6.596;2023-03-21T07:15:37;16.95;;;6.32;;
28774;SDS011;15926;51.348;6.596;2023-03-21T07:18:07;11.05;;;5.43;;
28774;SDS011;15926;51.348;6.596;2023-03-21T07:20:35;10.48;;;5.28;;
28774;SDS011;15926;51.348;6.596;2023-03-21T07:23:05;9.15;;;5.10;;
28774;SDS011;15926;51.348;6.596;2023-03-21T07:25:31;16.80;;;5.78;;
28774;SDS011;15926;51.348;6.596;2023-03-21T07:27:58;10.20;;;4.80;;
28774;SDS011;15926;51.348;6.596;2023-03-21T07:30:24;11.90;;;5.57;;
28774;SDS011;15926;51.348;6.596;2023-03-21T07:32:51;10.70;;;5.18;;
28774;SDS011;15926;51.348;6.596;2023-03-21T07:35:17;10.13;;;5.30;;
28774;SDS011;15926;51.348;6.596;2023-03-21T07:37:43;15.48;;;5.43;;
28774;SDS011;15926;51.348;6.596;2023-03-21T07:40:09;11.07;;;5.35;;
28774;SDS011;15926;51.348;6.596;2023-03-21T07:42:37;10.25;;;5.07;;
28774;SDS011;15926;51.348;6.596;2023-03-21T07:45:03;8.25;;;4.28;;
28774;SDS011;15926;51.348;6.596;2023-03-21T07:47:29;10.50;;;4.93;;
28774;SDS011;15926;51.348;6.596;2023-03-21T07:49:55;10.18;;;5.32;;
28774;SDS011;15926;51.348;6.596;2023-03-21T07:52:21;10.73;;;4.95;;
28774;SDS011;15926;51.348;6.596;2023-03-21T07:54:47;8.55;;;5.07;;
28774;SDS011;15926;51.348;6.596;2023-03-21T07:57:13;8.38;;;4.65;;
28774;SDS011;15926;51.348;6.596;2023-03-21T07:59:40;17.58;;;5.50;;
28774;SDS011;15926;51.348;6.596;2023-03-21T08:02:06;10.23;;;4.60;;
28774;SDS011;15926;51.348;6.596;2023-03-21T08:04:34;10.00;;;5.17;;
28774;SDS011;15926;51.348;6.596;2023-03-21T08:07:00;11.65;;;4.50;;
28774;SDS011;15926;51.348;6.596;2023-03-21T08:09:27;9.93;;;3.90;;
28774;SDS011;15926;51.348;6.596;2023-03-21T08:11:53;6.70;;;3.30;;
28774;SDS011;15926;51.348;6.596;2023-03-21T08:14:19;16.13;;;3.70;;
28774;SDS011;15926;51.348;6.596;2023-03-21T08:16:45;12.68;;;4.55;;
28774;SDS011;15926;51.348;6.596;2023-03-21T08:19:11;12.38;;;3.90;;
28774;SDS011;15926;51.348;6.596;2023-03-21T08:21:37;11.23;;;3.72;;
28774;SDS011;15926;51.348;6.596;2023-03-21T08:24:03;7.32;;;3.17;;
28774;SDS011;15926;51.348;6.596;2023-03-21T08:26:31;8.00;;;3.20;;
28774;SDS011;15926;51.348;6.596;2023-03-21T08:28:58;6.70;;;3.05;;
28774;SDS011;15926;51.348;6.596;2023-03-21T08:31:24;7.70;;;3.50;;
28774;SDS011;15926;51.348;6.596;2023-03-21T08:33:50;9.77;;;4.07;;
28774;SDS011;15926;51.348;6.596;2023-03-21T08:36:18;9.13;;;3.40;;
28774;SDS011;15926;51.348;6.596;2023-03-21T08:38:45;6.47;;;3.22;;
28774;SDS011;15926;51.348;6.596;2023-03-21T08:41:12;7.97;;;3.70;;
28774;SDS011;15926;51.348;6.596;2023-03-21T08:43:38;6.35;;;3.75;;
28774;SDS011;15926;51.348;6.596;2023-03-21T08:46:04;5.40;;;3.13;;
28774;SDS011;15926;51.348;6.596;2023-03-21T08:48:31;6.85;;;3.25;;
28774;SDS011;15926;51.348;6.596;2023-03-21T08:50:59;5.78;;;3.22;;
28774;SDS011;15926;51.348;6.596;2023-03-21T08:53:25;5.93;;;3.10;;
28774;SDS011;15926;51.348;6.596;2023-03-21T08:55:51;5.88;;;3.33;;
28774;SDS011;15926;51.348;6.596;2023-03-21T08:58:17;6.13;;;3.33;;
28774;SDS011;15926;51.348;6.596;2023-03-21T09:00:43;5.72;;;3.47;;
28774;SDS011;15926;51.348;6.596;2023-03-21T09:03:08;6.57;;;3.35;;
28774;SDS011;15926;51.348;6.596;2023-03-21T09:05:34;9.07;;;4.13;;
28774;SDS011;15926;51.348;6.596;2023-03-21T09:08:01;8.70;;;3.85;;
28774;SDS011;15926;51.348;6.596;2023-03-21T09:10:29;6.20;;;4.22;;
28774;SDS011;15926;51.348;6.596;2023-03-21T09:12:56;12.68;;;4.43;;
28774;SDS011;15926;51.348;6.596;2023-03-21T09:15:23;7.57;;;4.60;;
28774;SDS011;15926;51.348;6.596;2023-03-21T09:17:49;12.80;;;5.18;;
28774;SDS011;15926;51.348;6.596;2023-03-21T09:20:17;5.85;;;5.22;;
28774;SDS011;15926;51.348;6.596;2023-03-21T09:22:45;14.17;;;5.10;;
28774;SDS011;15926;51.348;6.596;2023-03-21T09:25:11;12.05;;;5.75;;
28774;SDS011;15926;51.348;6.596;2023-03-21T09:27:38;12.65;;;5.78;;
28774;SDS011;15926;51.348;6.596;2023-03-21T09:30:04;16.88;;;6.32;;
28774;SDS011;15926;51.348;6.596;2023-03-21T09:32:31;8.63;;;5.45;;
28774;SDS011;15926;51.348;6.596;2023-03-21T09:34:58;10.95;;;6.15;;
28774;SDS011;15926;51.348;6.596;2023-03-21T09:37:24;12.60;;;6.65;;
28774;SDS011;15926;51.348;6.596;2023-03-21T09:39:51;9.10;;;5.65;;
28774;SDS011;15926;51.348;6.596;2023-03-21T09:42:27;10.48;;;5.78;;
28774;SDS011;15926;51.348;6.596;2023-03-21T09:45:00;13.23;;;5.87;;
28774;SDS011;15926;51.348;6.596;2023-03-21T09:47:30;11.73;;;5.45;;
28774;SDS011;15926;51.348;6.596;2023-03-21T09:50:00;11.45;;;5.95;;
28774;SDS011;15926;51.348;6.596;2023-03-21T09:52:32;14.10;;;5.60;;
28774;SDS011;15926;51.348;6.596;2023-03-21T09:55:02;8.55;;;5.75;;
28774;SDS011;15926;51.348;6.596;2023-03-21T09:57:43;14.23;;;5.32;;
28774;SDS011;15926;51.348;6.596;2023-03-21T10:00:12;8.57;;;4.82;;
28774;SDS011;15926;51.348;6.596;2023-03-21T10:02:47;11.38;;;5.60;;
28774;SDS011;15926;51.348;6.596;2023-03-21T10:07:45;7.10;;;5.22;;
28774;SDS011;15926;51.348;6.596;2023-03-21T10:10:16;9.10;;;5.63;;
28774;SDS011;15926;51.348;6.596;2023-03-21T10:12:43;12.07;;;5.05;;
28774;SDS011;15926;51.348;6.596;2023-03-21T10:15:13;10.50;;;5.88;;
28774;SDS011;15926;51.348;6.596;2023-03-21T10:17:40;11.65;;;5.72;;
28774;SDS011;15926;51.348;6.596;2023-03-21T10:23:12;16.38;;;6.05;;
28774;SDS011;15926;51.348;6.596;2023-03-21T10:25:39;13.05;;;6.13;;
28774;SDS011;15926;51.348;6.596;2023-03-21T10:28:07;12.93;;;5.53;;
28774;SDS011;15926;51.348;6.596;2023-03-21T10:33:01;9.38;;;6.03;;
28774;SDS011;15926;51.348;6.596;2023-03-21T10:35:29;12.68;;;5.75;;
28774;SDS011;15926;51.348;6.596;2023-03-21T10:37:58;13.55;;;5.60;;
28774;SDS011;15926;51.348;6.596;2023-03-21T10:40:25;8.60;;;5.32;;
28774;SDS011;15926;51.348;6.596;2023-03-21T10:42:53;10.05;;;5.30;;
28774;SDS011;15926;51.348;6.596;2023-03-21T10:45:20;9.77;;;6.10;;
28774;SDS011;15926;51.348;6.596;2023-03-21T10:47:47;7.95;;;5.90;;
28774;SDS011;15926;51.348;6.596;2023-03-21T10:50:15;14.82;;;5.72;;
28774;SDS011;15926;51.348;6.596;2023-03-21T10:52:48;13.85;;;5.82;;
28774;SDS011;15926;51.348;6.596;2023-03-21T10:57:41;8.30;;;5.03;;
28774;SDS011;15926;51.348;6.596;2023-03-21T11:00:07;9.00;;;5.75;;
28774;SDS011;15926;51.348;6.596;2023-03-21T11:02:41;8.60;;;5.43;;
28774;SDS011;15926;51.348;6.596;2023-03-21T11:05:16;10.38;;;5.10;;
28774;SDS011;15926;51.348;6.596;2023-03-21T11:07:44;10.38;;;5.72;;
28774;SDS011;15926;51.348;6.596;2023-03-21T11:10:14;13.32;;;5.32;;
28774;SDS011;15926;51.348;6.596;2023-03-21T11:12:41;9.57;;;5.60;;
28774;SDS011;15926;51.348;6.596;2023-03-21T11:17:40;10.02;;;5.70;;
28774;SDS011;15926;51.348;6.596;2023-03-21T11:20:10;9.70;;;4.60;;
28774;SDS011;15926;51.348;6.596;2023-03-21T11:22:42;8.80;;;4.50;;
28774;SDS011;15926;51.348;6.596;2023-03-21T11:25:14;10.05;;;5.00;;
28774;SDS011;15926;51.348;6.596;2023-03-21T11:27:48;7.72;;;5.05;;
28774;SDS011;15926;51.348;6.596;2023-03-21T11:30:21;8.43;;;4.88;;
28774;SDS011;15926;51.348;6.596;2023-03-21T11:32:55;10.55;;;4.90;;
28774;SDS011;15926;51.348;6.596;2023-03-21T11:35:22;5.82;;;4.05;;
28774;SDS011;15926;51.348;6.596;2023-03-21T11:37:50;8.48;;;4.07;;
28774;SDS011;15926;51.348;6.596;2023-03-21T11:42:47;10.63;;;4.60;;
28774;SDS011;15926;51.348;6.596;2023-03-21T11:45:20;7.00;;;4.13;;
28774;SDS011;15926;51.348;6.596;2023-03-21T11:47:47;6.47;;;4.25;;
28774;SDS011;15926;51.348;6.596;2023-03-21T11:52:52;10.93;;;5.00;;
28774;SDS011;15926;51.348;6.596;2023-03-21T11:57:58;11.43;;;4.80;;
28774;SDS011;15926;51.348;6.596;2023-03-21T12:00:28;6.20;;;3.97;;
28774;SDS011;15926;51.348;6.596;2023-03-21T12:03:07;6.82;;;4.63;;
28774;SDS011;15926;51.348;6.596;2023-03-21T12:05:38;7.03;;;4.75;;
28774;SDS011;15926;51.348;6.596;2023-03-21T12:08:19;11.32;;;4.40;;
28774;SDS011;15926;51.348;6.596;2023-03-21T12:10:51;9.25;;;4.70;;
28774;SDS011;15926;51.348;6.596;2023-03-21T12:23:33;4.95;;;4.00;;
28774;SDS011;15926;51.348;6.596;2023-03-21T12:31:24;9.40;;;4.20;;
28774;SDS011;15926;51.348;6.596;2023-03-21T12:34:00;11.15;;;5.00;;
28774;SDS011;15926;51.348;6.596;2023-03-21T12:41:33;8.57;;;5.00;;
28774;SDS011;15926;51.348;6.596;2023-03-21T12:46:44;5.97;;;5.13;;
28774;SDS011;15926;51.348;6.596;2023-03-21T12:51:40;10.48;;;5.35;;
28774;SDS011;15926;51.348;6.596;2023-03-21T12:54:08;6.95;;;5.22;;
28774;SDS011;15926;51.348;6.596;2023-03-21T12:56:46;11.80;;;4.97;;
28774;SDS011;15926;51.348;6.596;2023-03-21T12:59:21;14.77;;;5.95;;
28774;SDS011;15926;51.348;6.596;2023-03-21T13:01:48;10.77;;;5.13;;
28774;SDS011;15926;51.348;6.596;2023-03-21T13:04:20;13.35;;;5.38;;
28774;SDS011;15926;51.348;6.596;2023-03-21T13:06:51;7.53;;;5.38;;
28774;SDS011;15926;51.348;6.596;2023-03-21T13:09:20;5.80;;;5.03;;
28774;SDS011;15926;51.348;6.596;2023-03-21T13:11:51;8.38;;;4.70;;
28774;SDS011;15926;51.348;6.596;2023-03-21T13:14:20;5.75;;;5.00;;
28774;SDS011;15926;51.348;6.596;2023-03-21T13:16:55;6.88;;;5.07;;
28774;SDS011;15926;51.348;6.596;2023-03-21T13:24:31;6.15;;;4.47;;
28774;SDS011;15926;51.348;6.596;2023-03-21T13:32:54;7.88;;;4.32;;
28774;SDS011;15926;51.348;6.596;2023-03-21T13:34:56;6.63;;;3.72;;
28774;SDS011;15926;51.348;6.596;2023-03-21T13:37:22;10.95;;;4.45;;
28774;SDS011;15926;51.348;6.596;2023-03-21T13:39:49;6.25;;;4.20;;
28774;SDS011;15926;51.348;6.596;2023-03-21T13:42:28;7.35;;;3.97;;
28774;SDS011;15926;51.348;6.596;2023-03-21T13:44:57;5.97;;;4.30;;
28774;SDS011;15926;51.348;6.596;2023-03-21T13:47:36;8.07;;;3.75;;
28774;SDS011;15926;51.348;6.596;2023-03-21T13:53:09;8.73;;;3.95;;
28774;SDS011;15926;51.348;6.596;2023-03-21T13:55:39;8.27;;;3.55;;
28774;SDS011;15926;51.348;6.596;2023-03-21T13:58:52;6.57;;;3.40;;
28774;SDS011;15926;51.348;6.596;2023-03-21T14:01:07;6.30;;;4.38;;
28774;SDS011;15926;51.348;6.596;2023-03-21T14:03:35;7.22;;;4.22;;
28774;SDS011;15926;51.348;6.596;2023-03-21T14:06:02;4.95;;;4.22;;
28774;SDS011;15926;51.348;6.596;2023-03-21T14:08:29;7.82;;;4.93;;
28774;SDS011;15926;51.348;6.596;2023-03-21T14:10:57;6.50;;;3.97;;
28774;SDS011;15926;51.348;6.596;2023-03-21T14:13:24;6.63;;;3.70;;
28774;SDS011;15926;51.348;6.596;2023-03-21T14:15:51;6.35;;;3.92;;
28774;SDS011;15926;51.348;6.596;2023-03-21T14:18:19;4.45;;;3.67;;
28774;SDS011;15926;51.348;6.596;2023-03-21T14:20:50;4.70;;;4.10;;
28774;SDS011;15926;51.348;6.596;2023-03-21T14:23:16;6.68;;;4.20;;
28774;SDS011;15926;51.348;6.596;2023-03-21T14:25:43;5.95;;;4.15;;
28774;SDS011;15926;51.348;6.596;2023-03-21T14:28:14;5.85;;;3.83;;
28774;SDS011;15926;51.348;6.596;2023-03-21T14:30:41;5.10;;;4.03;;
28774;SDS011;15926;51.348;6.596;2023-03-21T14:33:17;6.95;;;3.72;;
28774;SDS011;15926;51.348;6.596;2023-03-21T14:35:44;9.75;;;4.25;;
28774;SDS011;15926;51.348;6.596;2023-03-21T14:41:18;5.05;;;4.07;;
28774;SDS011;15926;51.348;6.596;2023-03-21T14:43:59;7.68;;;4.15;;
28774;SDS011;15926;51.348;6.596;2023-03-21T14:46:25;6.78;;;3.72;;
28774;SDS011;15926;51.348;6.596;2023-03-21T14:48:51;5.97;;;3.67;;
28774;SDS011;15926;51.348;6.596;2023-03-21T14:51:17;5.43;;;4.00;;
28774;SDS011;15926;51.348;6.596;2023-03-21T14:53:43;12.98;;;5.07;;
28774;SDS011;15926;51.348;6.596;2023-03-21T14:56:21;4.88;;;4.00;;
28774;SDS011;15926;51.348;6.596;2023-03-21T14:58:49;7.10;;;3.83;;
28774;SDS011;15926;51.348;6.596;2023-03-21T15:01:34;11.20;;;5.18;;
28774;SDS011;15926;51.348;6.596;2023-03-21T15:04:03;5.03;;;3.67;;
28774;SDS011;15926;51.348;6.596;2023-03-21T15:06:29;5.40;;;3.90;;
28774;SDS011;15926;51.348;6.596;2023-03-21T15:08:57;6.35;;;4.00;;
28774;SDS011;15926;51.348;6.596;2023-03-21T15:11:34;8.25;;;3.97;;
28774;SDS011;15926;51.348;6.596;2023-03-21T15:14:01;5.78;;;3.72;;
28774;SDS011;15926;51.348;6.596;2023-03-21T15:16:28;5.73;;;4.00;;
28774;SDS011;15926;51.348;6.596;2023-03-21T15:18:54;8.63;;;4.40;;
28774;SDS011;15926;51.348;6.596;2023-03-21T15:21:22;9.90;;;4.55;;
28774;SDS011;15926;51.348;6.596;2023-03-21T15:23:55;7.32;;;4.70;;
28774;SDS011;15926;51.348;6.596;2023-03-21T15:26:23;5.60;;;4.43;;
28774;SDS011;15926;51.348;6.596;2023-03-21T15:28:54;6.50;;;4.28;;
28774;SDS011;15926;51.348;6.596;2023-03-21T15:31:30;4.57;;;3.47;;
28774;SDS011;15926;51.348;6.596;2023-03-21T15:33:59;7.20;;;4.38;;
28774;SDS011;15926;51.348;6.596;2023-03-21T15:36:35;6.13;;;3.80;;
28774;SDS011;15926;51.348;6.596;2023-03-21T15:39:05;3.72;;;3.22;;
28774;SDS011;15926;51.348;6.596;2023-03-21T15:41:33;4.55;;;3.70;;
28774;SDS011;15926;51.348;6.596;2023-03-21T15:46:33;9.02;;;4.28;;
28774;SDS011;15926;51.348;6.596;2023-03-21T15:49:08;7.63;;;3.80;;
28774;SDS011;15926;51.348;6.596;2023-03-21T15:51:34;4.45;;;3.83;;
28774;SDS011;15926;51.348;6.596;2023-03-21T15:54:00;4.70;;;3.60;;
28774;SDS011;15926;51.348;6.596;2023-03-21T15:56:27;5.50;;;4.40;;
28774;SDS011;15926;51.348;6.596;2023-03-21T15:58:58;5.30;;;3.70;;
28774;SDS011;15926;51.348;6.596;2023-03-21T16:01:26;6.38;;;3.90;;
28774;SDS011;15926;51.348;6.596;2023-03-21T16:03:55;5.20;;;4.27;;
28774;SDS011;15926;51.348;6.596;2023-03-21T16:06:22;9.25;;;4.28;;
28774;SDS011;15926;51.348;6.596;2023-03-21T16:09:12;5.50;;;4.10;;
28774;SDS011;15926;51.348;6.596;2023-03-21T16:11:56;9.75;;;4.55;;
28774;SDS011;15926;51.348;6.596;2023-03-21T16:14:23;6.15;;;4.80;;
28774;SDS011;15926;51.348;6.596;2023-03-21T16:16:52;7.18;;;3.80;;
28774;SDS011;15926;51.348;6.596;2023-03-21T16:19:18;5.63;;;4.30;;
28774;SDS011;15926;51.348;6.596;2023-03-21T16:21:44;7.25;;;3.92;;
28774;SDS011;15926;51.348;6.596;2023-03-21T16:24:10;8.02;;;3.80;;
28774;SDS011;15926;51.348;6.596;2023-03-21T16:26:46;5.68;;;4.20;;
28774;SDS011;15926;51.348;6.596;2023-03-21T16:29:16;5.07;;;3.30;;